sensor_id;sensor_type;location;lat;lon;timestamp;pressure;altitude;pressure_sealevel;temperature;humidity
70304;BME280;57712;48.752;11.348;2023-05-08T00:01:29;97793.00;;;15.50;100.00
70304;BME280;57712;48.752;11.348;2023-05-08T00:03:55;97787.72;;;15.43;100.00
70304;BME280;57712;48.752;11.348;2023-05-08T00:06:22;97798.31;;;15.45;100.00
70304;BME280;57712;48.752;11.348;2023-05-08T00:08:49;97805.41;;;15.33;100.00
70304;BME280;57712;48.752;11.348;2023-05-08T00:11:16;97803.63;;;15.39;100.00
70304;BME280;57712;48.752;11.348;2023-05-08T00:13:42;97801.19;;;15.41;100.00
70304;BME280;57712;48.752;11.348;2023-05-08T00:16:09;97807.16;;;15.27;100.00
70304;BME280;57712;48.752;11.348;2023-05-08T00:18:37;97803.63;;;15.39;100.00
70304;BME280;57712;48.752;11.348;2023-05-08T00:21:05;97807.50;;;15.29;100.00
70304;BME280;57712;48.752;11.348;2023-05-08T00:23:32;97807.28;;;15.23;100.00
70304;BME280;57712;48.752;11.348;2023-05-08T00:25:59;97812.81;;;15.23;100.00
70304;BME280;57712;48.752;11.348;2023-05-08T00:28:25;97813.91;;;15.26;100.00
70304;BME280;57712;48.752;11.348;2023-05-08T00:30:53;97817.56;;;15.23;100.00
70304;BME280;57712;48.752;11.348;2023-05-08T00:33:19;97817.97;;;15.09;100.00
70304;BME280;57712;48.752;11.348;2023-05-08T00:35:46;97819.31;;;15.17;100.00
70304;BME280;57712;48.752;11.348;2023-05-08T00:38:13;97826.69;;;15.20;100.00
70304;BME280;57712;48.752;11.348;2023-05-08T00:40:39;97836.44;;;15.24;100.00
70304;BME280;57712;48.752;11.348;2023-05-08T00:43:06;97830.03;;;15.27;100.00
70304;BME280;57712;48.752;11.348;2023-05-08T00:45:38;97831.56;;;15.16;100.00
70304;BME280;57712;48.752;11.348;2023-05-08T00:48:05;97829.56;;;15.16;100.00
70304;BME280;57712;48.752;11.348;2023-05-08T00:50:33;97835.66;;;15.24;100.00
70304;BME280;57712;48.752;11.348;2023-05-08T00:53:01;97836.53;;;15.21;100.00
70304;BME280;57712;48.752;11.348;2023-05-08T00:55:30;97831.13;;;15.17;100.00
70304;BME280;57712;48.752;11.348;2023-05-08T00:57:58;97837.75;;;15.07;100.00
70304;BME280;57712;48.752;11.348;2023-05-08T01:00:25;97839.41;;;15.05;100.00
70304;BME280;57712;48.752;11.348;2023-05-08T01:02:51;97842.91;;;14.92;100.00
70304;BME280;57712;48.752;11.348;2023-05-08T01:05:19;97838.25;;;14.89;100.00
70304;BME280;57712;48.752;11.348;2023-05-08T01:07:45;97841.56;;;14.84;100.00
70304;BME280;57712;48.752;11.348;2023-05-08T01:10:12;97849.06;;;14.71;100.00
70304;BME280;57712;48.752;11.348;2023-05-08T01:13:03;97845.94;;;14.69;100.00
70304;BME280;57712;48.752;11.348;2023-05-08T01:15:35;97851.56;;;14.65;100.00
70304;BME280;57712;48.752;11.348;2023-05-08T01:18:13;97849.88;;;14.55;100.00
70304;BME280;57712;48.752;11.348;2023-05-08T01:21:02;97850.47;;;14.63;100.00
70304;BME280;57712;48.752;11.348;2023-05-08T01:34:45;97858.50;;;14.12;100.00
70304;BME280;57712;48.752;11.348;2023-05-08T01:37:18;97861.25;;;14.12;100.00
70304;BME280;57712;48.752;11.348;2023-05-08T01:39:50;97857.84;;;14.08;100.00
70304;BME280;57712;48.752;11.348;2023-05-08T01:42:49;97860.22;;;14.06;100.00
70304;BME280;57712;48.752;11.348;2023-05-08T01:45:26;97852.75;;;14.06;100.00
70304;BME280;57712;48.752;11.348;2023-05-08T01:48:04;97862.16;;;13.93;100.00
70304;BME280;57712;48.752;11.348;2023-05-08T01:50:35;97860.25;;;13.90;100.00
70304;BME280;57712;48.752;11.348;2023-05-08T01:53:12;97861.81;;;13.91;100.00
70304;BME280;57712;48.752;11.348;2023-05-08T01:55:40;97859.94;;;13.88;100.00
70304;BME280;57712;48.752;11.348;2023-05-08T01:58:09;97871.13;;;13.80;100.00
70304;BME280;57712;48.752;11.348;2023-05-08T02:00:40;97859.00;;;13.78;100.00
70304;BME280;57712;48.752;11.348;2023-05-08T02:03:09;97859.59;;;13.69;100.00
70304;BME280;57712;48.752;11.348;2023-05-08T02:05:37;97854.94;;;13.66;100.00
70304;BME280;57712;48.752;11.348;2023-05-08T02:08:07;97863.72;;;13.61;100.00
70304;BME280;57712;48.752;11.348;2023-05-08T02:10:36;97863.22;;;13.66;100.00
70304;BME280;57712;48.752;11.348;2023-05-08T02:13:03;97864.59;;;13.58;100.00
70304;BME280;57712;48.752;11.348;2023-05-08T02:15:32;97865.59;;;13.48;100.00
70304;BME280;57712;48.752;11.348;2023-05-08T02:18:04;97871.44;;;13.50;100.00
70304;BME280;57712;48.752;11.348;2023-05-08T02:20:32;97873.34;;;13.53;100.00
70304;BME280;57712;48.752;11.348;2023-05-08T02:22:59;97878.78;;;13.56;100.00
70304;BME280;57712;48.752;11.348;2023-05-08T02:25:28;97871.78;;;13.52;100.00
70304;BME280;57712;48.752;11.348;2023-05-08T02:27:56;97870.94;;;13.39;100.00
70304;BME280;57712;48.752;11.348;2023-05-08T02:30:24;97864.06;;;13.47;100.00
70304;BME280;57712;48.752;11.348;2023-05-08T02:32:52;97867.84;;;13.37;100.00
70304;BME280;57712;48.752;11.348;2023-05-08T02:35:23;97871.59;;;13.26;100.00
70304;BME280;57712;48.752;11.348;2023-05-08T02:37:52;97875.56;;;13.25;100.00
70304;BME280;57712;48.752;11.348;2023-05-08T02:40:22;97875.31;;;13.36;100.00
70304;BME280;57712;48.752;11.348;2023-05-08T02:42:50;97875.22;;;13.23;100.00
70304;BME280;57712;48.752;11.348;2023-05-08T02:45:17;97878.81;;;13.20;100.00
70304;BME280;57712;48.752;11.348;2023-05-08T02:48:04;97878.56;;;13.11;100.00
70304;BME280;57712;48.752;11.348;2023-05-08T02:50:59;97882.81;;;13.16;100.00
70304;BME280;57712;48.752;11.348;2023-05-08T02:53:34;97879.44;;;13.08;100.00
70304;BME280;57712;48.752;11.348;2023-05-08T02:56:09;97883.88;;;13.02;100.00
70304;BME280;57712;48.752;11.348;2023-05-08T02:58:44;97889.31;;;13.06;100.00
70304;BME280;57712;48.752;11.348;2023-05-08T03:01:20;97882.69;;;13.03;100.00
70304;BME280;57712;48.752;11.348;2023-05-08T03:03:58;97877.53;;;13.05;100.00
70304;BME280;57712;48.752;11.348;2023-05-08T03:06:37;97892.75;;;13.10;100.00
70304;BME280;57712;48.752;11.348;2023-05-08T03:09:12;97888.53;;;13.05;100.00
70304;BME280;57712;48.752;11.348;2023-05-08T03:11:41;97886.28;;;13.00;100.00
70304;BME280;57712;48.752;11.348;2023-05-08T03:14:11;97893.41;;;12.97;100.00
70304;BME280;57712;48.752;11.348;2023-05-08T03:16:41;97886.16;;;12.87;100.00
70304;BME280;57712;48.752;11.348;2023-05-08T03:19:21;97882.31;;;13.01;100.00
70304;BME280;57712;48.752;11.348;2023-05-08T03:21:50;97885.50;;;12.99;100.00
70304;BME280;57712;48.752;11.348;2023-05-08T03:24:21;97880.00;;;12.99;100.00
70304;BME280;57712;48.752;11.348;2023-05-08T03:26:50;97879.38;;;12.92;100.00
70304;BME280;57712;48.752;11.348;2023-05-08T03:29:17;97878.53;;;12.95;100.00
70304;BME280;57712;48.752;11.348;2023-05-08T03:31:45;97886.50;;;12.89;100.00
70304;BME280;57712;48.752;11.348;2023-05-08T03:34:13;97878.13;;;12.77;100.00
70304;BME280;57712;48.752;11.348;2023-05-08T03:36:41;97885.19;;;12.78;100.00
70304;BME280;57712;48.752;11.348;2023-05-08T03:39:08;97879.25;;;12.79;100.00
70304;BME280;57712;48.752;11.348;2023-05-08T03:41:35;97883.56;;;12.80;100.00
70304;BME280;57712;48.752;11.348;2023-05-08T03:44:02;97882.63;;;12.87;100.00
70304;BME280;57712;48.752;11.348;2023-05-08T03:46:33;97891.56;;;12.91;100.00
70304;BME280;57712;48.752;11.348;2023-05-08T03:49:03;97895.88;;;12.92;100.00
70304;BME280;57712;48.752;11.348;2023-05-08T03:51:30;97891.75;;;12.84;100.00
70304;BME280;57712;48.752;11.348;2023-05-08T03:53:57;97894.28;;;12.75;100.00
70304;BME280;57712;48.752;11.348;2023-05-08T03:56:24;97889.56;;;12.75;100.00
70304;BME280;57712;48.752;11.348;2023-05-08T03:59:20;97890.03;;;12.70;100.00
70304;BME280;57712;48.752;11.348;2023-05-08T04:01:51;97894.91;;;12.62;100.00
70304;BME280;57712;48.752;11.348;2023-05-08T04:04:29;97897.66;;;12.62;100.00
70304;BME280;57712;48.752;11.348;2023-05-08T04:12:35;97918.78;;;12.46;100.00
70304;BME280;57712;48.752;11.348;2023-05-08T04:15:19;97915.47;;;12.54;100.00
70304;BME280;57712;48.752;11.348;2023-05-08T04:17:59;97920.47;;;12.59;100.00
70304;BME280;57712;48.752;11.348;2023-05-08T04:20:30;97915.41;;;12.58;100.00
70304;BME280;57712;48.752;11.348;2023-05-08T04:22:59;97928.22;;;12.45;100.00
70304;BME280;57712;48.752;11.348;2023-05-08T04:25:27;97935.00;;;12.60;100.00
70304;BME280;57712;48.752;11.348;2023-05-08T04:27:54;97930.66;;;12.62;100.00
70304;BME280;57712;48.752;11.348;2023-05-08T04:30:23;97942.88;;;12.58;100.00
70304;BME280;57712;48.752;11.348;2023-05-08T04:32:50;97940.91;;;12.58;100.00
70304;BME280;57712;48.752;11.348;2023-05-08T04:35:17;97936.50;;;12.64;100.00
70304;BME280;57712;48.752;11.348;2023-05-08T04:37:45;97937.91;;;12.53;100.00
70304;BME280;57712;48.752;11.348;2023-05-08T04:40:12;97942.75;;;12.45;100.00
70304;BME280;57712;48.752;11.348;2023-05-08T04:42:39;97952.41;;;12.53;100.00
70304;BME280;57712;48.752;11.348;2023-05-08T04:45:09;97950.72;;;12.59;100.00
70304;BME280;57712;48.752;11.348;2023-05-08T04:47:36;97952.22;;;12.64;100.00
70304;BME280;57712;48.752;11.348;2023-05-08T04:50:03;97958.91;;;12.63;100.00
70304;BME280;57712;48.752;11.348;2023-05-08T04:52:30;97957.56;;;12.71;100.00
70304;BME280;57712;48.752;11.348;2023-05-08T04:54:56;97951.03;;;12.85;100.00
70304;BME280;57712;48.752;11.348;2023-05-08T04:57:23;97952.78;;;12.75;100.00
70304;BME280;57712;48.752;11.348;2023-05-08T04:59:50;97956.78;;;12.70;100.00
70304;BME280;57712;48.752;11.348;2023-05-08T05:02:17;97966.97;;;12.74;100.00
70304;BME280;57712;48.752;11.348;2023-05-08T05:04:44;97957.00;;;12.80;100.00
70304;BME280;57712;48.752;11.348;2023-05-08T05:07:10;97956.66;;;12.78;100.00
70304;BME280;57712;48.752;11.348;2023-05-08T05:09:37;97963.00;;;12.75;100.00
70304;BME280;57712;48.752;11.348;2023-05-08T05:12:05;97964.84;;;12.61;100.00
70304;BME280;57712;48.752;11.348;2023-05-08T05:14:32;97968.75;;;12.60;100.00
70304;BME280;57712;48.752;11.348;2023-05-08T05:16:59;97973.47;;;12.60;100.00
70304;BME280;57712;48.752;11.348;2023-05-08T05:19:26;97979.41;;;12.58;100.00
70304;BME280;57712;48.752;11.348;2023-05-08T05:21:52;97980.47;;;12.64;100.00
70304;BME280;57712;48.752;11.348;2023-05-08T05:24:19;97991.19;;;12.79;100.00
70304;BME280;57712;48.752;11.348;2023-05-08T05:26:46;97977.38;;;12.62;100.00
70304;BME280;57712;48.752;11.348;2023-05-08T05:29:12;97980.84;;;12.86;100.00
70304;BME280;57712;48.752;11.348;2023-05-08T05:31:39;97978.38;;;12.72;100.00
70304;BME280;57712;48.752;11.348;2023-05-08T05:34:06;97976.47;;;12.89;100.00
70304;BME280;57712;48.752;11.348;2023-05-08T05:36:33;97980.06;;;12.86;100.00
70304;BME280;57712;48.752;11.348;2023-05-08T05:39:00;97973.25;;;12.94;100.00
70304;BME280;57712;48.752;11.348;2023-05-08T05:41:26;97987.00;;;12.70;100.00
70304;BME280;57712;48.752;11.348;2023-05-08T05:43:53;97992.16;;;12.68;100.00
70304;BME280;57712;48.752;11.348;2023-05-08T05:46:20;97986.81;;;12.61;100.00
70304;BME280;57712;48.752;11.348;2023-05-08T05:48:46;97992.78;;;12.56;100.00
70304;BME280;57712;48.752;11.348;2023-05-08T05:51:13;97990.25;;;12.65;100.00
70304;BME280;57712;48.752;11.348;2023-05-08T05:53:39;97989.34;;;12.52;100.00
70304;BME280;57712;48.752;11.348;2023-05-08T05:56:06;97986.88;;;12.58;100.00
70304;BME280;57712;48.752;11.348;2023-05-08T05:58:33;97999.72;;;12.64;100.00
70304;BME280;57712;48.752;11.348;2023-05-08T06:01:00;97994.16;;;12.88;100.00
70304;BME280;57712;48.752;11.348;2023-05-08T06:03:26;97995.22;;;12.74;100.00
70304;BME280;57712;48.752;11.348;2023-05-08T06:05:54;97996.56;;;12.86;100.00
70304;BME280;57712;48.752;11.348;2023-05-08T06:08:21;97998.34;;;12.96;100.00
70304;BME280;57712;48.752;11.348;2023-05-08T06:10:48;97987.34;;;12.96;100.00
70304;BME280;57712;48.752;11.348;2023-05-08T06:13:15;98001.94;;;12.93;100.00
70304;BME280;57712;48.752;11.348;2023-05-08T06:15:42;97986.44;;;13.03;100.00
70304;BME280;57712;48.752;11.348;2023-05-08T06:18:09;98003.03;;;12.76;100.00
70304;BME280;57712;48.752;11.348;2023-05-08T06:20:37;98004.75;;;13.09;100.00
70304;BME280;57712;48.752;11.348;2023-05-08T06:23:04;98004.94;;;12.79;100.00
70304;BME280;57712;48.752;11.348;2023-05-08T06:25:31;98008.38;;;13.26;100.00
70304;BME280;57712;48.752;11.348;2023-05-08T06:27:58;98001.78;;;13.23;100.00
70304;BME280;57712;48.752;11.348;2023-05-08T06:30:25;98009.59;;;13.45;100.00
70304;BME280;57712;48.752;11.348;2023-05-08T06:32:51;98009.28;;;13.59;100.00
70304;BME280;57712;48.752;11.348;2023-05-08T06:35:18;98006.91;;;13.77;100.00
70304;BME280;57712;48.752;11.348;2023-05-08T06:37:45;98014.97;;;14.53;100.00
70304;BME280;57712;48.752;11.348;2023-05-08T06:40:12;98011.34;;;14.40;100.00
70304;BME280;57712;48.752;11.348;2023-05-08T06:42:39;98015.81;;;14.18;100.00
70304;BME280;57712;48.752;11.348;2023-05-08T06:45:08;98017.63;;;14.08;100.00
70304;BME280;57712;48.752;11.348;2023-05-08T06:47:34;98013.66;;;14.41;100.00
70304;BME280;57712;48.752;11.348;2023-05-08T06:50:01;98020.38;;;14.57;100.00
70304;BME280;57712;48.752;11.348;2023-05-08T06:52:28;98006.78;;;14.33;100.00
70304;BME280;57712;48.752;11.348;2023-05-08T06:54:55;98010.72;;;14.00;100.00
70304;BME280;57712;48.752;11.348;2023-05-08T06:57:22;98014.69;;;14.15;100.00
70304;BME280;57712;48.752;11.348;2023-05-08T06:59:52;98019.69;;;14.20;100.00
70304;BME280;57712;48.752;11.348;2023-05-08T07:02:19;98008.31;;;14.34;100.00
70304;BME280;57712;48.752;11.348;2023-05-08T07:04:46;98009.19;;;14.64;100.00
70304;BME280;57712;48.752;11.348;2023-05-08T07:07:13;98020.88;;;14.68;100.00
70304;BME280;57712;48.752;11.348;2023-05-08T07:09:40;98015.22;;;15.04;100.00
70304;BME280;57712;48.752;11.348;2023-05-08T07:12:07;98023.50;;;15.04;100.00
70304;BME280;57712;48.752;11.348;2023-05-08T07:14:34;98014.28;;;14.94;100.00
70304;BME280;57712;48.752;11.348;2023-05-08T07:17:03;98023.06;;;15.06;100.00
70304;BME280;57712;48.752;11.348;2023-05-08T07:19:37;98018.94;;;14.97;100.00
70304;BME280;57712;48.752;11.348;2023-05-08T07:22:04;98023.03;;;14.77;100.00
70304;BME280;57712;48.752;11.348;2023-05-08T07:24:31;98018.56;;;15.53;100.00
70304;BME280;57712;48.752;11.348;2023-05-08T07:26:59;98025.06;;;15.59;100.00
70304;BME280;57712;48.752;11.348;2023-05-08T07:29:25;98024.00;;;15.28;100.00
70304;BME280;57712;48.752;11.348;2023-05-08T07:31:52;98026.59;;;15.48;100.00
70304;BME280;57712;48.752;11.348;2023-05-08T07:34:19;98023.03;;;15.64;100.00
70304;BME280;57712;48.752;11.348;2023-05-08T07:36:46;98023.81;;;15.35;100.00
70304;BME280;57712;48.752;11.348;2023-05-08T07:39:12;98024.00;;;15.28;100.00
70304;BME280;57712;48.752;11.348;2023-05-08T07:41:39;98025.56;;;15.29;100.00
70304;BME280;57712;48.752;11.348;2023-05-08T07:44:06;98021.38;;;15.37;100.00
70304;BME280;57712;48.752;11.348;2023-05-08T07:46:33;98019.66;;;15.43;100.00
70304;BME280;57712;48.752;11.348;2023-05-08T07:49:00;98034.16;;;15.31;100.00
70304;BME280;57712;48.752;11.348;2023-05-08T07:51:26;98017.50;;;15.89;100.00
70304;BME280;57712;48.752;11.348;2023-05-08T07:53:53;98026.38;;;16.09;100.00
70304;BME280;57712;48.752;11.348;2023-05-08T07:56:21;98031.81;;;15.58;100.00
70304;BME280;57712;48.752;11.348;2023-05-08T07:58:48;98023.16;;;15.98;100.00
70304;BME280;57712;48.752;11.348;2023-05-08T08:01:15;98017.88;;;15.49;100.00
70304;BME280;57712;48.752;11.348;2023-05-08T08:03:44;98030.25;;;15.45;100.00
70304;BME280;57712;48.752;11.348;2023-05-08T08:06:11;98027.25;;;16.19;100.00
70304;BME280;57712;48.752;11.348;2023-05-08T08:08:37;98025.59;;;15.96;100.00
70304;BME280;57712;48.752;11.348;2023-05-08T08:11:05;98032.78;;;16.06;100.00
70304;BME280;57712;48.752;11.348;2023-05-08T08:13:32;98019.25;;;16.34;100.00
70304;BME280;57712;48.752;11.348;2023-05-08T08:15:59;98024.25;;;16.13;100.00
70304;BME280;57712;48.752;11.348;2023-05-08T08:18:26;98031.25;;;16.65;100.00
70304;BME280;57712;48.752;11.348;2023-05-08T08:20:54;98024.47;;;16.92;100.00
70304;BME280;57712;48.752;11.348;2023-05-08T08:23:20;98025.31;;;16.54;100.00
70304;BME280;57712;48.752;11.348;2023-05-08T08:25:47;98030.94;;;16.63;100.00
70304;BME280;57712;48.752;11.348;2023-05-08T08:28:13;98031.59;;;16.67;100.00
70304;BME280;57712;48.752;11.348;2023-05-08T08:30:40;98035.31;;;16.13;100.00
70304;BME280;57712;48.752;11.348;2023-05-08T08:33:07;98025.28;;;16.80;100.00
70304;BME280;57712;48.752;11.348;2023-05-08T08:35:34;98037.88;;;17.37;100.00
70304;BME280;57712;48.752;11.348;2023-05-08T08:38:02;98026.41;;;17.48;100.00
70304;BME280;57712;48.752;11.348;2023-05-08T08:40:28;98029.88;;;17.17;100.00
70304;BME280;57712;48.752;11.348;2023-05-08T08:42:55;98030.19;;;17.19;100.00
70304;BME280;57712;48.752;11.348;2023-05-08T08:45:22;98032.28;;;16.71;100.00
70304;BME280;57712;48.752;11.348;2023-05-08T08:47:51;98030.66;;;17.40;100.00
70304;BME280;57712;48.752;11.348;2023-05-08T08:50:19;98026.72;;;17.06;100.00
70304;BME280;57712;48.752;11.348;2023-05-08T08:53:00;98025.88;;;16.96;100.00
70304;BME280;57712;48.752;11.348;2023-05-08T08:55:33;98029.63;;;17.02;100.00
70304;BME280;57712;48.752;11.348;2023-05-08T08:58:13;98021.53;;;17.74;100.00
70304;BME280;57712;48.752;11.348;2023-05-08T09:00:43;98025.53;;;17.51;100.00
70304;BME280;57712;48.752;11.348;2023-05-08T09:03:10;98010.81;;;17.63;100.00
70304;BME280;57712;48.752;11.348;2023-05-08T09:05:38;98012.34;;;17.64;100.00
70304;BME280;57712;48.752;11.348;2023-05-08T09:08:05;98015.06;;;17.55;100.00
70304;BME280;57712;48.752;11.348;2023-05-08T09:10:33;98012.31;;;16.89;100.00
70304;BME280;57712;48.752;11.348;2023-05-08T09:13:05;98025.66;;;17.25;100.00
70304;BME280;57712;48.752;11.348;2023-05-08T09:15:32;98024.63;;;17.10;100.00
70304;BME280;57712;48.752;11.348;2023-05-08T09:18:02;98030.66;;;17.40;100.00
70304;BME280;57712;48.752;11.348;2023-05-08T09:20:29;98013.78;;;17.47;100.00
70304;BME280;57712;48.752;11.348;2023-05-08T09:22:56;98018.09;;;17.48;100.00
70304;BME280;57712;48.752;11.348;2023-05-08T09:25:23;98009.72;;;17.82;100.00
70304;BME280;57712;48.752;11.348;2023-05-08T09:27:50;98015.00;;;17.99;100.00
70304;BME280;57712;48.752;11.348;2023-05-08T09:30:18;98020.34;;;18.24;100.00
70304;BME280;57712;48.752;11.348;2023-05-08T09:32:45;98012.63;;;18.19;100.00
70304;BME280;57712;48.752;11.348;2023-05-08T09:35:11;98016.47;;;17.81;100.00
70304;BME280;57712;48.752;11.348;2023-05-08T09:37:42;98024.59;;;17.54;100.00
70304;BME280;57712;48.752;11.348;2023-05-08T09:40:17;98024.31;;;17.61;100.00
70304;BME280;57712;48.752;11.348;2023-05-08T09:42:48;98028.47;;;17.56;100.00
70304;BME280;57712;48.752;11.348;2023-05-08T09:45:30;98012.56;;;17.70;100.00
70304;BME280;57712;48.752;11.348;2023-05-08T09:47:57;98030.03;;;17.36;100.00
70304;BME280;57712;48.752;11.348;2023-05-08T09:50:24;98023.94;;;18.03;100.00
70304;BME280;57712;48.752;11.348;2023-05-08T09:52:51;98023.84;;;18.74;100.00
70304;BME280;57712;48.752;11.348;2023-05-08T09:55:18;98029.22;;;18.59;100.00
70304;BME280;57712;48.752;11.348;2023-05-08T09:57:56;98025.94;;;18.52;100.00
70304;BME280;57712;48.752;11.348;2023-05-08T10:00:25;98033.81;;;18.53;100.00
70304;BME280;57712;48.752;11.348;2023-05-08T10:02:55;98038.81;;;18.67;100.00
70304;BME280;57712;48.752;11.348;2023-05-08T10:05:33;98026.50;;;19.42;100.00
70304;BME280;57712;48.752;11.348;2023-05-08T10:08:18;98032.34;;;19.53;100.00
70304;BME280;57712;48.752;11.348;2023-05-08T10:10:45;98026.03;;;19.43;99.86
70304;BME280;57712;48.752;11.348;2023-05-08T10:13:12;98025.09;;;19.37;100.00
70304;BME280;57712;48.752;11.348;2023-05-08T10:15:43;98022.63;;;19.57;100.00
70304;BME280;57712;48.752;11.348;2023-05-08T10:18:12;98018.09;;;19.69;100.00
70304;BME280;57712;48.752;11.348;2023-05-08T10:20:46;98018.25;;;20.17;97.02
70304;BME280;57712;48.752;11.348;2023-05-08T10:23:15;98018.84;;;19.79;100.00
70304;BME280;57712;48.752;11.348;2023-05-08T10:25:47;98019.81;;;20.42;100.00
70304;BME280;57712;48.752;11.348;2023-05-08T10:30:50;98017.03;;;21.14;97.03
70304;BME280;57712;48.752;11.348;2023-05-08T10:33:24;98013.72;;;20.29;100.00
70304;BME280;57712;48.752;11.348;2023-05-08T10:35:57;98019.28;;;20.86;98.50
70304;BME280;57712;48.752;11.348;2023-05-08T10:38:24;98000.34;;;20.42;99.82
70304;BME280;57712;48.752;11.348;2023-05-08T10:40:52;98009.78;;;20.68;100.00
70304;BME280;57712;48.752;11.348;2023-05-08T10:43:24;98004.75;;;20.82;98.51
70304;BME280;57712;48.752;11.348;2023-05-08T10:45:52;98002.41;;;21.43;100.00
70304;BME280;57712;48.752;11.348;2023-05-08T10:48:35;98002.94;;;21.17;99.18
70304;BME280;57712;48.752;11.348;2023-05-08T10:53:51;97996.16;;;20.70;98.36
70304;BME280;57712;48.752;11.348;2023-05-08T10:56:27;98000.28;;;19.94;98.72
70304;BME280;57712;48.752;11.348;2023-05-08T10:58:55;97992.91;;;20.15;96.68
70304;BME280;57712;48.752;11.348;2023-05-08T11:01:24;97997.19;;;19.92;100.00
70304;BME280;57712;48.752;11.348;2023-05-08T11:03:51;97994.28;;;20.19;100.00
70304;BME280;57712;48.752;11.348;2023-05-08T11:06:47;97991.97;;;20.51;97.77
70304;BME280;57712;48.752;11.348;2023-05-08T11:09:22;97991.66;;;19.83;100.00
70304;BME280;57712;48.752;11.348;2023-05-08T11:12:02;97988.69;;;19.96;100.00
70304;BME280;57712;48.752;11.348;2023-05-08T11:14:32;97994.09;;;19.90;100.00
70304;BME280;57712;48.752;11.348;2023-05-08T11:19:27;97991.69;;;19.74;99.23
70304;BME280;57712;48.752;11.348;2023-05-08T11:24:38;97983.97;;;20.44;100.00
70304;BME280;57712;48.752;11.348;2023-05-08T11:27:04;97987.94;;;19.86;94.43
70304;BME280;57712;48.752;11.348;2023-05-08T11:29:31;97977.09;;;20.78;100.00
70304;BME280;57712;48.752;11.348;2023-05-08T11:31:58;97976.44;;;20.59;94.00
70304;BME280;57712;48.752;11.348;2023-05-08T11:37:15;97981.44;;;20.55;100.00
70304;BME280;57712;48.752;11.348;2023-05-08T11:39:42;97981.06;;;19.63;99.98
70304;BME280;57712;48.752;11.348;2023-05-08T11:45:09;97979.63;;;19.77;100.00
70304;BME280;57712;48.752;11.348;2023-05-08T11:47:40;97981.59;;;19.85;100.00
70304;BME280;57712;48.752;11.348;2023-05-08T11:50:09;97980.56;;;19.74;100.00
70304;BME280;57712;48.752;11.348;2023-05-08T11:52:40;97972.38;;;20.12;100.00
70304;BME280;57712;48.752;11.348;2023-05-08T11:55:08;97976.50;;;19.93;96.21
70304;BME280;57712;48.752;11.348;2023-05-08T11:57:35;97975.50;;;19.63;100.00
70304;BME280;57712;48.752;11.348;2023-05-08T12:00:09;97975.97;;;19.71;100.00
70304;BME280;57712;48.752;11.348;2023-05-08T12:05:05;97979.53;;;19.53;100.00
70304;BME280;57712;48.752;11.348;2023-05-08T12:07:44;97982.16;;;19.56;100.00
70304;BME280;57712;48.752;11.348;2023-05-08T12:10:15;97984.19;;;19.38;100.00
70304;BME280;57712;48.752;11.348;2023-05-08T12:12:43;97980.31;;;19.53;100.00
70304;BME280;57712;48.752;11.348;2023-05-08T12:15:13;97983.13;;;19.96;100.00
70304;BME280;57712;48.752;11.348;2023-05-08T12:17:41;97976.75;;;19.53;98.24
70304;BME280;57712;48.752;11.348;2023-05-08T12:20:17;97979.44;;;19.29;98.53
70304;BME280;57712;48.752;11.348;2023-05-08T12:22:52;97982.16;;;19.38;100.00
70304;BME280;57712;48.752;11.348;2023-05-08T12:25:18;97973.84;;;19.38;100.00
70304;BME280;57712;48.752;11.348;2023-05-08T12:27:45;97974.31;;;19.27;100.00
70304;BME280;57712;48.752;11.348;2023-05-08T12:30:13;97978.50;;;19.23;100.00
70304;BME280;57712;48.752;11.348;2023-05-08T12:32:42;97980.06;;;19.15;100.00
70304;BME280;57712;48.752;11.348;2023-05-08T12:35:10;97974.50;;;19.15;100.00
70304;BME280;57712;48.752;11.348;2023-05-08T12:37:38;97972.97;;;18.95;100.00
70304;BME280;57712;48.752;11.348;2023-05-08T12:40:05;97977.63;;;18.98;100.00
70304;BME280;57712;48.752;11.348;2023-05-08T12:42:49;97974.19;;;18.85;100.00
70304;BME280;57712;48.752;11.348;2023-05-08T12:45:20;97976.03;;;19.07;100.00
70304;BME280;57712;48.752;11.348;2023-05-08T12:47:49;97985.31;;;18.94;100.00
70304;BME280;57712;48.752;11.348;2023-05-08T12:50:17;97984.72;;;18.90;100.00
70304;BME280;57712;48.752;11.348;2023-05-08T12:52:44;97978.53;;;18.95;100.00
70304;BME280;57712;48.752;11.348;2023-05-08T12:55:25;97987.19;;;18.88;100.00
70304;BME280;57712;48.752;11.348;2023-05-08T12:58:12;97990.56;;;18.92;100.00
70304;BME280;57712;48.752;11.348;2023-05-08T13:00:42;97981.75;;;18.94;100.00
70304;BME280;57712;48.752;11.348;2023-05-08T13:03:19;97979.78;;;18.67;100.00
70304;BME280;57712;48.752;11.348;2023-05-08T13:05:50;97993.59;;;18.58;100.00
70304;BME280;57712;48.752;11.348;2023-05-08T13:08:17;97989.97;;;18.88;100.00
70304;BME280;57712;48.752;11.348;2023-05-08T13:13:21;97982.78;;;18.51;100.00
70304;BME280;57712;48.752;11.348;2023-05-08T13:15:49;97974.75;;;18.43;100.00
70304;BME280;57712;48.752;11.348;2023-05-08T13:18:17;97975.09;;;18.45;100.00
70304;BME280;57712;48.752;11.348;2023-05-08T13:20:44;97980.00;;;18.41;100.00
70304;BME280;57712;48.752;11.348;2023-05-08T13:23:12;97977.47;;;18.65;100.00
70304;BME280;57712;48.752;11.348;2023-05-08T13:25:39;97973.00;;;18.77;100.00
70304;BME280;57712;48.752;11.348;2023-05-08T13:28:07;97969.44;;;18.77;100.00
70304;BME280;57712;48.752;11.348;2023-05-08T13:30:35;97970.94;;;18.59;100.00